sensor_id;sensor_type;location;lat;lon;timestamp;pressure;altitude;pressure_sealevel;temperature;humidity
62103;BME280;48077;48.104;11.702;2023-02-20T00:02:04;96378.22;;;5.32;81.56
62103;BME280;48077;48.104;11.702;2023-02-20T00:04:30;96473.63;;;5.92;81.65
62103;BME280;48077;48.104;11.702;2023-02-20T00:06:53;96375.47;;;5.25;82.09
62103;BME280;48077;48.104;11.702;2023-02-20T00:09:16;96422.81;;;5.58;82.13
62103;BME280;48077;48.104;11.702;2023-02-20T00:11:42;96421.81;;;5.59;81.79
62103;BME280;48077;48.104;11.702;2023-02-20T00:14:06;96404.59;;;5.40;81.85
62103;BME280;48077;48.104;11.702;2023-02-20T00:16:30;96448.56;;;5.64;81.64
62103;BME280;48077;48.104;11.702;2023-02-20T00:18:53;96363.81;;;5.12;81.58
62103;BME280;48077;48.104;11.702;2023-02-20T00:21:17;96502.06;;;5.98;81.61
62103;BME280;48077;48.104;11.702;2023-02-20T00:23:42;96480.31;;;5.87;81.34
62103;BME280;48077;48.104;11.702;2023-02-20T00:26:10;96454.44;;;5.75;81.80
62103;BME280;48077;48.104;11.702;2023-02-20T00:28:34;96427.00;;;5.53;81.35
62103;BME280;48077;48.104;11.702;2023-02-20T00:31:00;96471.81;;;5.77;81.48
62103;BME280;48077;48.104;11.702;2023-02-20T00:33:24;96424.53;;;5.51;81.27
62103;BME280;48077;48.104;11.702;2023-02-20T00:35:47;96462.94;;;5.85;81.57
62103;BME280;48077;48.104;11.702;2023-02-20T00:38:12;96381.56;;;5.26;81.53
62103;BME280;48077;48.104;11.702;2023-02-20T00:40:36;96412.09;;;5.52;82.00
62103;BME280;48077;48.104;11.702;2023-02-20T00:42:59;96359.66;;;5.17;82.07
62103;BME280;48077;48.104;11.702;2023-02-20T00:45:23;96427.09;;;5.59;82.39
62103;BME280;48077;48.104;11.702;2023-02-20T00:47:46;96441.09;;;5.68;82.69
62103;BME280;48077;48.104;11.702;2023-02-20T00:50:11;96441.09;;;5.68;82.07
62103;BME280;48077;48.104;11.702;2023-02-20T00:52:35;96358.19;;;5.15;82.13
62103;BME280;48077;48.104;11.702;2023-02-20T00:55:02;96450.69;;;5.69;82.63
62103;BME280;48077;48.104;11.702;2023-02-20T00:57:25;96481.94;;;5.88;82.77
62103;BME280;48077;48.104;11.702;2023-02-20T00:59:51;96479.69;;;5.85;82.64
62103;BME280;48077;48.104;11.702;2023-02-20T01:02:15;96487.72;;;5.92;82.67
62103;BME280;48077;48.104;11.702;2023-02-20T01:04:38;96481.13;;;5.88;83.23
62103;BME280;48077;48.104;11.702;2023-02-20T01:07:02;96454.97;;;5.70;83.09
62103;BME280;48077;48.104;11.702;2023-02-20T01:09:25;96474.06;;;5.80;83.32
62103;BME280;48077;48.104;11.702;2023-02-20T01:11:50;96476.28;;;5.92;83.39
62103;BME280;48077;48.104;11.702;2023-02-20T01:14:14;96462.50;;;5.81;83.38
62103;BME280;48077;48.104;11.702;2023-02-20T01:16:46;96468.50;;;5.75;83.14
62103;BME280;48077;48.104;11.702;2023-02-20T01:19:09;96476.47;;;5.90;83.50
62103;BME280;48077;48.104;11.702;2023-02-20T01:21:33;96491.91;;;5.86;83.29
62103;BME280;48077;48.104;11.702;2023-02-20T01:23:56;96487.63;;;5.85;83.38
62103;BME280;48077;48.104;11.702;2023-02-20T01:26:19;96451.41;;;5.63;83.34
62103;BME280;48077;48.104;11.702;2023-02-20T01:28:52;96440.16;;;5.61;84.02
62103;BME280;48077;48.104;11.702;2023-02-20T01:31:16;96443.34;;;5.56;83.91
62103;BME280;48077;48.104;11.702;2023-02-20T01:33:41;96401.66;;;5.35;84.17
62103;BME280;48077;48.104;11.702;2023-02-20T01:36:07;96367.66;;;5.09;83.89
62103;BME280;48077;48.104;11.702;2023-02-20T01:38:33;96414.38;;;5.40;84.12
62103;BME280;48077;48.104;11.702;2023-02-20T01:40:57;96480.19;;;5.81;84.45
62103;BME280;48077;48.104;11.702;2023-02-20T01:43:20;96352.84;;;5.00;84.27
62103;BME280;48077;48.104;11.702;2023-02-20T01:45:44;96431.34;;;5.45;84.49
62103;BME280;48077;48.104;11.702;2023-02-20T01:48:37;96485.31;;;5.82;84.58
62103;BME280;48077;48.104;11.702;2023-02-20T01:51:00;96479.38;;;5.80;84.90
62103;BME280;48077;48.104;11.702;2023-02-20T01:53:26;96467.66;;;5.75;84.64
62103;BME280;48077;48.104;11.702;2023-02-20T01:55:58;96471.22;;;5.67;84.97
62103;BME280;48077;48.104;11.702;2023-02-20T01:58:25;96456.06;;;5.61;84.89
62103;BME280;48077;48.104;11.702;2023-02-20T02:00:50;96454.69;;;5.65;85.55
62103;BME280;48077;48.104;11.702;2023-02-20T02:03:23;96459.56;;;5.76;84.55
62103;BME280;48077;48.104;11.702;2023-02-20T02:05:52;96467.78;;;5.81;84.45
62103;BME280;48077;48.104;11.702;2023-02-20T02:08:17;96438.97;;;5.63;84.89
62103;BME280;48077;48.104;11.702;2023-02-20T02:10:59;96459.06;;;5.73;84.98
62103;BME280;48077;48.104;11.702;2023-02-20T02:13:24;96439.47;;;5.67;84.79
62103;BME280;48077;48.104;11.702;2023-02-20T02:33:05;96436.59;;;5.68;84.42
62103;BME280;48077;48.104;11.702;2023-02-20T02:35:59;96455.06;;;5.77;84.48
62103;BME280;48077;48.104;11.702;2023-02-20T02:38:44;96459.91;;;5.73;84.69
62103;BME280;48077;48.104;11.702;2023-02-20T02:41:20;96446.03;;;5.71;84.73
62103;BME280;48077;48.104;11.702;2023-02-20T02:46:33;96376.94;;;5.28;84.54
62103;BME280;48077;48.104;11.702;2023-02-20T02:51:39;96423.81;;;5.57;85.02
62103;BME280;48077;48.104;11.702;2023-02-20T02:54:15;96449.03;;;5.68;84.79
62103;BME280;48077;48.104;11.702;2023-02-20T02:56:41;96440.28;;;5.67;84.87
62103;BME280;48077;48.104;11.702;2023-02-20T02:59:09;96447.19;;;5.68;85.34
62103;BME280;48077;48.104;11.702;2023-02-20T03:01:42;96433.97;;;5.68;84.79
62103;BME280;48077;48.104;11.702;2023-02-20T03:04:11;96426.94;;;5.61;84.68
62103;BME280;48077;48.104;11.702;2023-02-20T03:06:37;96422.63;;;5.60;84.81
62103;BME280;48077;48.104;11.702;2023-02-20T03:11:51;96453.34;;;5.69;85.08
62103;BME280;48077;48.104;11.702;2023-02-20T03:14:20;96452.16;;;5.72;84.99
62103;BME280;48077;48.104;11.702;2023-02-20T03:17:14;96444.22;;;5.72;84.43
62103;BME280;48077;48.104;11.702;2023-02-20T03:19:47;96452.50;;;5.68;84.70
62103;BME280;48077;48.104;11.702;2023-02-20T03:22:19;96419.22;;;5.51;85.03
62103;BME280;48077;48.104;11.702;2023-02-20T03:24:45;96443.41;;;5.71;84.53
62103;BME280;48077;48.104;11.702;2023-02-20T03:27:35;96390.66;;;5.46;84.15
62103;BME280;48077;48.104;11.702;2023-02-20T03:30:01;96432.88;;;5.63;84.79
62103;BME280;48077;48.104;11.702;2023-02-20T03:32:26;96394.66;;;5.42;84.80
62103;BME280;48077;48.104;11.702;2023-02-20T03:35:12;96417.88;;;5.55;84.93
62103;BME280;48077;48.104;11.702;2023-02-20T03:37:57;96421.88;;;5.51;85.60
62103;BME280;48077;48.104;11.702;2023-02-20T03:40:41;96429.09;;;5.57;85.28
62103;BME280;48077;48.104;11.702;2023-02-20T03:43:24;96424.06;;;5.47;85.65
62103;BME280;48077;48.104;11.702;2023-02-20T03:46:19;96427.06;;;5.44;85.23
62103;BME280;48077;48.104;11.702;2023-02-20T03:48:49;96419.34;;;5.35;85.59
62103;BME280;48077;48.104;11.702;2023-02-20T03:51:14;96430.53;;;5.45;85.89
62103;BME280;48077;48.104;11.702;2023-02-20T03:53:57;96425.03;;;5.32;85.49
62103;BME280;48077;48.104;11.702;2023-02-20T03:56:25;96435.78;;;5.30;86.07
62103;BME280;48077;48.104;11.702;2023-02-20T03:59:21;96432.84;;;5.25;86.38
62103;BME280;48077;48.104;11.702;2023-02-20T04:01:45;96430.25;;;5.17;86.12
62103;BME280;48077;48.104;11.702;2023-02-20T04:04:17;96426.00;;;5.07;86.55
62103;BME280;48077;48.104;11.702;2023-02-20T04:06:44;96430.47;;;5.07;86.86
62103;BME280;48077;48.104;11.702;2023-02-20T04:09:11;96445.97;;;5.10;86.61
62103;BME280;48077;48.104;11.702;2023-02-20T04:11:38;96458.22;;;5.11;86.98
62103;BME280;48077;48.104;11.702;2023-02-20T04:14:03;96444.91;;;4.96;86.88
62103;BME280;48077;48.104;11.702;2023-02-20T04:16:27;96444.44;;;4.93;87.03
62103;BME280;48077;48.104;11.702;2023-02-20T04:18:51;96457.44;;;5.02;87.37
62103;BME280;48077;48.104;11.702;2023-02-20T04:21:31;96457.78;;;4.99;87.81
62103;BME280;48077;48.104;11.702;2023-02-20T04:24:02;96444.97;;;4.88;87.84
62103;BME280;48077;48.104;11.702;2023-02-20T04:26:27;96437.25;;;4.78;87.77
62103;BME280;48077;48.104;11.702;2023-02-20T04:28:51;96447.28;;;4.83;88.30
62103;BME280;48077;48.104;11.702;2023-02-20T04:31:17;96430.81;;;4.73;88.15
62103;BME280;48077;48.104;11.702;2023-02-20T04:33:41;96457.03;;;4.82;88.51
62103;BME280;48077;48.104;11.702;2023-02-20T04:36:05;96447.16;;;4.76;88.72
62103;BME280;48077;48.104;11.702;2023-02-20T04:38:28;96445.84;;;4.72;88.84
62103;BME280;48077;48.104;11.702;2023-02-20T04:40:51;96445.19;;;4.70;89.01
62103;BME280;48077;48.104;11.702;2023-02-20T04:43:15;96422.84;;;4.50;88.98
62103;BME280;48077;48.104;11.702;2023-02-20T04:45:38;96448.66;;;4.71;89.50
62103;BME280;48077;48.104;11.702;2023-02-20T04:48:02;96439.50;;;4.58;89.19
62103;BME280;48077;48.104;11.702;2023-02-20T04:50:28;96443.13;;;4.57;89.09
62103;BME280;48077;48.104;11.702;2023-02-20T04:52:52;96464.91;;;4.59;89.99
62103;BME280;48077;48.104;11.702;2023-02-20T04:55:16;96457.50;;;4.55;89.77
62103;BME280;48077;48.104;11.702;2023-02-20T04:57:39;96440.22;;;4.44;89.98
62103;BME280;48077;48.104;11.702;2023-02-20T05:00:04;96442.00;;;4.43;90.03
62103;BME280;48077;48.104;11.702;2023-02-20T05:02:27;96435.94;;;4.35;90.73
62103;BME280;48077;48.104;11.702;2023-02-20T05:04:51;96426.22;;;4.27;90.93
62103;BME280;48077;48.104;11.702;2023-02-20T05:07:15;96449.13;;;4.35;90.33
62103;BME280;48077;48.104;11.702;2023-02-20T05:09:42;96427.25;;;4.18;90.74
62103;BME280;48077;48.104;11.702;2023-02-20T05:12:06;96451.00;;;4.26;90.95
62103;BME280;48077;48.104;11.702;2023-02-20T05:14:29;96433.84;;;4.14;91.22
62103;BME280;48077;48.104;11.702;2023-02-20T05:16:52;96427.44;;;4.00;91.18
62103;BME280;48077;48.104;11.702;2023-02-20T05:19:18;96454.31;;;4.12;92.08
62103;BME280;48077;48.104;11.702;2023-02-20T05:21:43;96444.94;;;4.01;92.36
62103;BME280;48077;48.104;11.702;2023-02-20T05:24:25;96437.38;;;3.90;92.03
62103;BME280;48077;48.104;11.702;2023-02-20T05:26:51;96435.06;;;3.87;92.21
62103;BME280;48077;48.104;11.702;2023-02-20T05:29:15;96457.66;;;3.89;92.12
62103;BME280;48077;48.104;11.702;2023-02-20T05:31:39;96459.84;;;3.85;92.72
62103;BME280;48077;48.104;11.702;2023-02-20T05:34:02;96444.97;;;3.76;92.62
62103;BME280;48077;48.104;11.702;2023-02-20T05:36:26;96434.13;;;3.63;93.46
62103;BME280;48077;48.104;11.702;2023-02-20T05:38:49;96449.94;;;3.63;93.03
62103;BME280;48077;48.104;11.702;2023-02-20T05:41:16;96431.63;;;3.53;93.08
62103;BME280;48077;48.104;11.702;2023-02-20T05:43:39;96459.34;;;3.57;93.14
62103;BME280;48077;48.104;11.702;2023-02-20T05:46:03;96458.53;;;3.57;93.63
62103;BME280;48077;48.104;11.702;2023-02-20T05:48:26;96471.22;;;3.61;93.10
62103;BME280;48077;48.104;11.702;2023-02-20T05:50:49;96477.31;;;3.54;92.82
62103;BME280;48077;48.104;11.702;2023-02-20T05:53:13;96464.09;;;3.45;93.74
62103;BME280;48077;48.104;11.702;2023-02-20T05:55:36;96461.97;;;3.33;94.07
62103;BME280;48077;48.104;11.702;2023-02-20T05:57:59;96472.66;;;3.31;93.96
62103;BME280;48077;48.104;11.702;2023-02-20T06:00:23;96459.00;;;3.19;93.70
62103;BME280;48077;48.104;11.702;2023-02-20T06:02:47;96426.97;;;2.98;94.48
62103;BME280;48077;48.104;11.702;2023-02-20T06:05:10;96474.16;;;3.17;94.06
62103;BME280;48077;48.104;11.702;2023-02-20T06:07:34;96480.91;;;3.20;94.51
62103;BME280;48077;48.104;11.702;2023-02-20T06:09:58;96476.91;;;3.08;94.34
62103;BME280;48077;48.104;11.702;2023-02-20T06:12:21;96486.13;;;3.03;94.51
62103;BME280;48077;48.104;11.702;2023-02-20T06:14:45;96468.16;;;2.91;94.89
62103;BME280;48077;48.104;11.702;2023-02-20T06:17:08;96489.91;;;3.01;95.62
62103;BME280;48077;48.104;11.702;2023-02-20T06:19:31;96509.88;;;3.12;95.45
62103;BME280;48077;48.104;11.702;2023-02-20T06:21:55;96506.75;;;3.16;95.93
62103;BME280;48077;48.104;11.702;2023-02-20T06:24:21;96493.13;;;3.21;96.57
62103;BME280;48077;48.104;11.702;2023-02-20T06:26:45;96456.19;;;3.13;96.52
62103;BME280;48077;48.104;11.702;2023-02-20T06:29:08;96487.81;;;3.29;95.58
62103;BME280;48077;48.104;11.702;2023-02-20T06:31:32;96495.94;;;3.36;95.34
62103;BME280;48077;48.104;11.702;2023-02-20T06:33:55;96499.22;;;3.38;95.81
62103;BME280;48077;48.104;11.702;2023-02-20T06:36:21;96461.28;;;3.22;95.72
62103;BME280;48077;48.104;11.702;2023-02-20T06:38:45;96502.84;;;3.45;95.23
62103;BME280;48077;48.104;11.702;2023-02-20T06:41:08;96483.72;;;3.35;95.86
62103;BME280;48077;48.104;11.702;2023-02-20T06:43:32;96471.03;;;3.30;95.82
62103;BME280;48077;48.104;11.702;2023-02-20T06:45:55;96485.03;;;3.31;95.50
62103;BME280;48077;48.104;11.702;2023-02-20T06:48:18;96481.41;;;3.32;96.07
62103;BME280;48077;48.104;11.702;2023-02-20T06:50:42;96491.31;;;3.38;95.97
62103;BME280;48077;48.104;11.702;2023-02-20T06:53:06;96500.06;;;3.47;95.23
62103;BME280;48077;48.104;11.702;2023-02-20T06:55:29;96475.81;;;3.35;95.28
62103;BME280;48077;48.104;11.702;2023-02-20T06:57:53;96475.00;;;3.34;95.54
62103;BME280;48077;48.104;11.702;2023-02-20T07:00:17;96494.44;;;3.41;95.28
62103;BME280;48077;48.104;11.702;2023-02-20T07:02:40;96497.41;;;3.47;95.60
62103;BME280;48077;48.104;11.702;2023-02-20T07:05:04;96493.97;;;3.46;95.39
62103;BME280;48077;48.104;11.702;2023-02-20T07:07:28;96492.00;;;3.48;95.20
62103;BME280;48077;48.104;11.702;2023-02-20T07:09:51;96504.84;;;3.59;95.65
62103;BME280;48077;48.104;11.702;2023-02-20T07:12:14;96508.00;;;3.63;95.65
62103;BME280;48077;48.104;11.702;2023-02-20T07:14:38;96508.00;;;3.63;95.18
62103;BME280;48077;48.104;11.702;2023-02-20T07:17:01;96513.59;;;3.76;94.87
62103;BME280;48077;48.104;11.702;2023-02-20T07:19:24;96519.03;;;3.91;94.42
62103;BME280;48077;48.104;11.702;2023-02-20T07:21:48;96493.47;;;3.83;94.61
62103;BME280;48077;48.104;11.702;2023-02-20T07:24:12;96510.78;;;3.94;93.91
62103;BME280;48077;48.104;11.702;2023-02-20T07:26:36;96518.84;;;4.09;93.49
62103;BME280;48077;48.104;11.702;2023-02-20T07:29:01;96513.22;;;4.12;92.80
62103;BME280;48077;48.104;11.702;2023-02-20T07:31:25;96451.56;;;3.80;92.57
62103;BME280;48077;48.104;11.702;2023-02-20T07:33:49;96474.47;;;4.04;91.78
62103;BME280;48077;48.104;11.702;2023-02-20T07:36:13;96506.94;;;4.30;91.68
62103;BME280;48077;48.104;11.702;2023-02-20T07:38:37;96473.97;;;4.17;90.92
62103;BME280;48077;48.104;11.702;2023-02-20T07:41:04;96390.56;;;3.75;90.19
62103;BME280;48077;48.104;11.702;2023-02-20T07:43:27;96459.06;;;4.24;90.48
62103;BME280;48077;48.104;11.702;2023-02-20T07:45:53;96517.56;;;4.69;89.56
62103;BME280;48077;48.104;11.702;2023-02-20T07:48:16;96509.81;;;4.68;89.67
62103;BME280;48077;48.104;11.702;2023-02-20T07:50:43;96513.91;;;4.70;88.71
62103;BME280;48077;48.104;11.702;2023-02-20T07:53:06;96496.44;;;4.69;87.78
62103;BME280;48077;48.104;11.702;2023-02-20T07:55:32;96513.53;;;4.90;87.39
62103;BME280;48077;48.104;11.702;2023-02-20T07:57:56;96492.09;;;4.76;87.40
62103;BME280;48077;48.104;11.702;2023-02-20T08:00:20;96507.41;;;4.89;87.35
62103;BME280;48077;48.104;11.702;2023-02-20T08:02:44;96504.22;;;4.94;86.53
62103;BME280;48077;48.104;11.702;2023-02-20T08:05:07;96488.06;;;4.89;85.67
62103;BME280;48077;48.104;11.702;2023-02-20T08:07:31;96503.09;;;4.96;85.94
62103;BME280;48077;48.104;11.702;2023-02-20T08:09:54;96482.94;;;4.87;86.40
62103;BME280;48077;48.104;11.702;2023-02-20T08:12:18;96454.78;;;4.71;86.31
62103;BME280;48077;48.104;11.702;2023-02-20T08:14:41;96491.00;;;4.94;86.58
62103;BME280;48077;48.104;11.702;2023-02-20T08:17:04;96484.22;;;4.99;86.28
62103;BME280;48077;48.104;11.702;2023-02-20T08:19:28;96450.78;;;4.83;86.02
62103;BME280;48077;48.104;11.702;2023-02-20T08:21:53;96456.03;;;4.92;85.79
62103;BME280;48077;48.104;11.702;2023-02-20T08:24:17;96463.41;;;4.96;84.94
62103;BME280;48077;48.104;11.702;2023-02-20T08:26:44;96481.16;;;5.19;84.26
62103;BME280;48077;48.104;11.702;2023-02-20T08:29:08;96451.09;;;5.12;83.77
62103;BME280;48077;48.104;11.702;2023-02-20T08:31:31;96469.63;;;5.35;83.26
62103;BME280;48077;48.104;11.702;2023-02-20T08:33:54;96467.94;;;5.42;82.76
62103;BME280;48077;48.104;11.702;2023-02-20T08:36:18;96477.28;;;5.53;82.72
62103;BME280;48077;48.104;11.702;2023-02-20T08:38:41;96460.28;;;5.47;82.54
62103;BME280;48077;48.104;11.702;2023-02-20T08:41:06;96450.81;;;5.53;82.11
62103;BME280;48077;48.104;11.702;2023-02-20T08:43:30;96455.50;;;5.65;81.55
62103;BME280;48077;48.104;11.702;2023-02-20T08:45:54;96444.09;;;5.65;81.55
62103;BME280;48077;48.104;11.702;2023-02-20T08:48:17;96448.06;;;5.84;80.36
62103;BME280;48077;48.104;11.702;2023-02-20T08:50:41;96450.13;;;5.97;78.59
62103;BME280;48077;48.104;11.702;2023-02-20T08:53:04;96460.94;;;6.25;77.50
62103;BME280;48077;48.104;11.702;2023-02-20T08:55:27;96453.00;;;6.40;76.62
62103;BME280;48077;48.104;11.702;2023-02-20T08:57:51;96443.22;;;6.55;75.81
62103;BME280;48077;48.104;11.702;2023-02-20T09:00:15;96452.88;;;6.78;75.08
62103;BME280;48077;48.104;11.702;2023-02-20T09:02:39;96441.44;;;6.92;74.50
62103;BME280;48077;48.104;11.702;2023-02-20T09:05:04;96423.69;;;6.93;74.12
62103;BME280;48077;48.104;11.702;2023-02-20T09:07:27;96427.78;;;6.95;73.95
62103;BME280;48077;48.104;11.702;2023-02-20T09:09:50;96452.00;;;7.07;73.43
62103;BME280;48077;48.104;11.702;2023-02-20T09:12:14;96410.53;;;6.84;73.59
62103;BME280;48077;48.104;11.702;2023-02-20T09:14:37;96423.50;;;6.94;73.97
62103;BME280;48077;48.104;11.702;2023-02-20T09:17:01;96394.91;;;6.75;73.84
62103;BME280;48077;48.104;11.702;2023-02-20T09:19:24;96407.78;;;6.93;73.80
62103;BME280;48077;48.104;11.702;2023-02-20T09:21:48;96392.59;;;6.86;73.30
62103;BME280;48077;48.104;11.702;2023-02-20T09:24:11;96415.31;;;7.11;72.42
62103;BME280;48077;48.104;11.702;2023-02-20T09:26:34;96399.91;;;7.21;72.34
62103;BME280;48077;48.104;11.702;2023-02-20T09:28:58;96414.88;;;7.50;71.77
62103;BME280;48077;48.104;11.702;2023-02-20T09:31:23;96387.09;;;7.46;70.63
62103;BME280;48077;48.104;11.702;2023-02-20T09:33:46;96408.16;;;7.76;69.61
62103;BME280;48077;48.104;11.702;2023-02-20T09:36:10;96377.09;;;7.76;69.33
62103;BME280;48077;48.104;11.702;2023-02-20T09:38:33;96392.56;;;7.94;69.03
62103;BME280;48077;48.104;11.702;2023-02-20T09:40:58;96396.59;;;8.25;67.56
62103;BME280;48077;48.104;11.702;2023-02-20T09:46:19;96403.13;;;8.50;66.79
62103;BME280;48077;48.104;11.702;2023-02-20T09:48:52;96411.56;;;8.61;66.26
62103;BME280;48077;48.104;11.702;2023-02-20T09:51:20;96404.06;;;8.71;65.38
62103;BME280;48077;48.104;11.702;2023-02-20T09:56:35;96366.03;;;8.84;62.31
62103;BME280;48077;48.104;11.702;2023-02-20T10:01:30;96353.19;;;9.01;63.35
62103;BME280;48077;48.104;11.702;2023-02-20T10:04:24;96340.09;;;9.13;61.76
62103;BME280;48077;48.104;11.702;2023-02-20T10:06:46;96358.31;;;9.29;61.61
62103;BME280;48077;48.104;11.702;2023-02-20T10:09:13;96346.84;;;9.08;61.39
62103;BME280;48077;48.104;11.702;2023-02-20T10:11:50;96360.38;;;9.20;61.43
62103;BME280;48077;48.104;11.702;2023-02-20T10:17:06;96356.94;;;9.46;60.66
62103;BME280;48077;48.104;11.702;2023-02-20T10:19:39;96358.16;;;9.64;60.24
62103;BME280;48077;48.104;11.702;2023-02-20T10:22:17;96333.97;;;9.65;59.51
62103;BME280;48077;48.104;11.702;2023-02-20T10:27:37;96358.88;;;10.38;58.04
62103;BME280;48077;48.104;11.702;2023-02-20T10:30:04;96332.97;;;10.51;55.67
62103;BME280;48077;48.104;11.702;2023-02-20T10:32:44;96327.88;;;10.50;54.66
62103;BME280;48077;48.104;11.702;2023-02-20T10:35:30;96363.47;;;10.76;55.40
62103;BME280;48077;48.104;11.702;2023-02-20T10:37:56;96334.84;;;10.89;54.77
62103;BME280;48077;48.104;11.702;2023-02-20T10:40:46;96323.19;;;10.84;53.84
62103;BME280;48077;48.104;11.702;2023-02-20T10:43:54;96324.59;;;10.86;53.90
62103;BME280;48077;48.104;11.702;2023-02-20T10:48:40;96313.03;;;10.61;54.27
62103;BME280;48077;48.104;11.702;2023-02-20T10:51:06;96327.78;;;10.63;53.83
62103;BME280;48077;48.104;11.702;2023-02-20T10:53:58;96306.22;;;10.71;54.25
62103;BME280;48077;48.104;11.702;2023-02-20T10:56:36;96300.88;;;10.71;53.76
62103;BME280;48077;48.104;11.702;2023-02-20T11:01:30;96305.22;;;10.98;53.61
62103;BME280;48077;48.104;11.702;2023-02-20T11:04:13;96284.97;;;10.90;52.62
62103;BME280;48077;48.104;11.702;2023-02-20T11:06:47;96294.53;;;11.29;52.75
62103;BME280;48077;48.104;11.702;2023-02-20T11:09:12;96308.25;;;11.83;51.59
62103;BME280;48077;48.104;11.702;2023-02-20T11:11:39;96282.91;;;11.92;49.89
62103;BME280;48077;48.104;11.702;2023-02-20T11:14:25;96291.66;;;12.37;49.12
62103;BME280;48077;48.104;11.702;2023-02-20T11:17:07;96273.13;;;12.53;48.99
62103;BME280;48077;48.104;11.702;2023-02-20T11:19:50;96258.59;;;12.80;48.81
62103;BME280;48077;48.104;11.702;2023-02-20T11:22:15;96258.91;;;13.13;47.96
62103;BME280;48077;48.104;11.702;2023-02-20T11:24:40;96253.44;;;13.20;47.06
62103;BME280;48077;48.104;11.702;2023-02-20T11:29:40;96270.28;;;13.51;45.88
62103;BME280;48077;48.104;11.702;2023-02-20T11:32:22;96245.59;;;13.49;45.13
62103;BME280;48077;48.104;11.702;2023-02-20T11:34:46;96242.78;;;13.67;44.84
62103;BME280;48077;48.104;11.702;2023-02-20T11:37:14;96241.25;;;13.83;44.04
62103;BME280;48077;48.104;11.702;2023-02-20T11:39:38;96219.91;;;14.00;44.14
62103;BME280;48077;48.104;11.702;2023-02-20T11:42:17;96246.09;;;14.22;43.84
62103;BME280;48077;48.104;11.702;2023-02-20T11:44:42;96237.56;;;14.25;43.90
62103;BME280;48077;48.104;11.702;2023-02-20T11:47:26;96215.63;;;14.28;43.46
62103;BME280;48077;48.104;11.702;2023-02-20T11:50:08;96237.50;;;14.48;43.39
62103;BME280;48077;48.104;11.702;2023-02-20T11:52:31;96236.81;;;14.41;42.71
62103;BME280;48077;48.104;11.702;2023-02-20T11:55:10;96232.38;;;14.59;43.52
62103;BME280;48077;48.104;11.702;2023-02-20T11:57:39;96223.13;;;14.83;42.94
62103;BME280;48077;48.104;11.702;2023-02-20T12:00:16;96221.19;;;15.12;42.64
62103;BME280;48077;48.104;11.702;2023-02-20T12:05:19;96194.63;;;15.50;41.39
62103;BME280;48077;48.104;11.702;2023-02-20T12:10:41;96201.38;;;15.86;40.99
62103;BME280;48077;48.104;11.702;2023-02-20T12:13:11;96173.38;;;15.65;40.88
62103;BME280;48077;48.104;11.702;2023-02-20T12:15:34;96198.16;;;15.50;40.70
62103;BME280;48077;48.104;11.702;2023-02-20T12:20:45;96106.53;;;14.33;42.30
62103;BME280;48077;48.104;11.702;2023-02-20T12:28:45;96166.78;;;13.73;44.59
62103;BME280;48077;48.104;11.702;2023-02-20T12:36:36;96168.66;;;13.26;45.61
62103;BME280;48077;48.104;11.702;2023-02-20T12:41:31;96156.78;;;13.22;45.74
62103;BME280;48077;48.104;11.702;2023-02-20T12:47:21;96148.84;;;13.62;44.69
62103;BME280;48077;48.104;11.702;2023-02-20T13:01:08;96116.88;;;13.44;43.16
62103;BME280;48077;48.104;11.702;2023-02-20T13:03:40;96101.59;;;13.32;43.31
62103;BME280;48077;48.104;11.702;2023-02-20T13:06:05;96120.34;;;13.44;43.10
62103;BME280;48077;48.104;11.702;2023-02-20T13:09:06;96114.19;;;13.44;42.87
62103;BME280;48077;48.104;11.702;2023-02-20T13:11:38;96114.78;;;13.34;42.84
62103;BME280;48077;48.104;11.702;2023-02-20T13:19:39;96113.13;;;13.21;42.36
62103;BME280;48077;48.104;11.702;2023-02-20T13:22:04;96102.84;;;13.18;43.20
62103;BME280;48077;48.104;11.702;2023-02-20T13:24:36;96084.13;;;13.06;42.53
62103;BME280;48077;48.104;11.702;2023-02-20T13:27:02;96089.25;;;13.08;42.10
62103;BME280;48077;48.104;11.702;2023-02-20T13:29:29;96096.91;;;13.16;42.52
62103;BME280;48077;48.104;11.702;2023-02-20T13:32:21;96102.41;;;13.33;43.56
62103;BME280;48077;48.104;11.702;2023-02-20T13:34:52;96080.72;;;13.23;44.07
62103;BME280;48077;48.104;11.702;2023-02-20T13:39:57;96088.06;;;13.39;44.79
62103;BME280;48077;48.104;11.702;2023-02-20T13:42:29;96083.13;;;13.60;43.97
62103;BME280;48077;48.104;11.702;2023-02-20T13:44:53;96099.06;;;13.78;44.15
62103;BME280;48077;48.104;11.702;2023-02-20T13:55:02;96092.75;;;13.32;44.50
62103;BME280;48077;48.104;11.702;2023-02-20T13:57:29;96102.09;;;13.29;45.61
62103;BME280;48077;48.104;11.702;2023-02-20T13:59:55;96077.13;;;13.29;45.28
62103;BME280;48077;48.104;11.702;2023-02-20T14:02:21;96102.41;;;13.33;44.62
62103;BME280;48077;48.104;11.702;2023-02-20T14:05:00;96102.72;;;13.25;44.84
62103;BME280;48077;48.104;11.702;2023-02-20T14:07:36;96100.66;;;13.15;45.21
62103;BME280;48077;48.104;11.702;2023-02-20T14:10:03;96082.41;;;13.00;44.70
62103;BME280;48077;48.104;11.702;2023-02-20T14:12:27;96073.53;;;13.00;44.81
62103;BME280;48077;48.104;11.702;2023-02-20T14:14:50;96060.16;;;12.88;44.78
62103;BME280;48077;48.104;11.702;2023-02-20T14:17:18;96079.13;;;12.98;45.19
62103;BME280;48077;48.104;11.702;2023-02-20T14:19:46;96075.28;;;12.94;44.92
62103;BME280;48077;48.104;11.702;2023-02-20T14:24:42;96044.00;;;12.71;45.56
62103;BME280;48077;48.104;11.702;2023-02-20T14:27:40;96056.78;;;12.81;45.26
62103;BME280;48077;48.104;11.702;2023-02-20T14:32:35;96044.00;;;12.71;45.42
62103;BME280;48077;48.104;11.702;2023-02-20T14:35:11;96037.91;;;12.64;44.97
62103;BME280;48077;48.104;11.702;2023-02-20T14:38:05;96057.56;;;12.81;44.95
62103;BME280;48077;48.104;11.702;2023-02-20T14:40:43;96055.94;;;12.68;45.50
62103;BME280;48077;48.104;11.702;2023-02-20T14:43:18;96059.44;;;12.57;45.92
62103;BME280;48077;48.104;11.702;2023-02-20T14:45:43;96048.59;;;12.52;46.09